createdAt,value
2023-03-03T00:00:21.617Z,0.75
2023-03-03T00:01:21.602Z,0.73
2023-03-03T00:02:21.629Z,0.65
2023-03-03T00:03:21.737Z,0.72
2023-03-03T00:04:21.600Z,0.68
2023-03-03T00:05:21.575Z,0.72
2023-03-03T00:06:21.530Z,0.72
2023-03-03T00:07:21.518Z,0.61
2023-03-03T00:08:21.505Z,0.69
2023-03-03T00:09:21.546Z,0.66
2023-03-03T00:10:21.525Z,0.73
2023-03-03T00:11:21.487Z,0.69
2023-03-03T00:12:21.470Z,0.69
2023-03-03T00:13:21.452Z,0.66
2023-03-03T00:14:21.436Z,0.61
2023-03-03T00:15:21.435Z,0.61
2023-03-03T00:16:21.572Z,0.69
2023-03-03T00:17:21.411Z,0.70
2023-03-03T00:18:21.411Z,0.58
2023-03-03T00:19:21.422Z,0.61
2023-03-03T00:20:21.433Z,0.58
2023-03-03T00:21:21.394Z,0.60
2023-03-03T00:22:21.354Z,0.61
2023-03-03T00:23:21.352Z,0.57
2023-03-03T00:24:21.361Z,0.65
2023-03-03T00:25:21.314Z,0.68
2023-03-03T00:26:21.314Z,0.70
2023-03-03T00:27:21.313Z,0.66
2023-03-03T00:28:21.287Z,0.73
2023-03-03T00:29:21.300Z,0.68
2023-03-03T00:30:21.262Z,0.61
2023-03-03T00:31:21.324Z,0.53
2023-03-03T00:32:21.340Z,0.57
2023-03-03T00:33:21.231Z,0.68
2023-03-03T00:34:21.245Z,0.49
2023-03-03T00:35:21.307Z,0.57
2023-03-03T00:36:21.210Z,0.60
2023-03-03T00:37:21.197Z,0.55
2023-03-03T00:38:21.195Z,0.53
2023-03-03T00:39:21.217Z,0.53
2023-03-03T00:40:21.186Z,0.53
2023-03-03T00:41:21.157Z,0.49
2023-03-03T00:42:21.144Z,0.46
2023-03-03T00:43:21.152Z,0.51
2023-03-03T00:44:21.132Z,0.41
2023-03-03T00:45:21.150Z,0.53
2023-03-03T00:46:21.143Z,0.42
2023-03-03T00:47:21.091Z,0.44
2023-03-03T00:48:21.066Z,0.42
2023-03-03T00:49:21.066Z,0.41
2023-03-03T00:50:21.071Z,0.44
2023-03-03T00:51:21.060Z,0.35
2023-03-03T00:52:21.038Z,0.46
2023-03-03T00:53:21.016Z,0.47
2023-03-03T00:54:21.027Z,0.41
2023-03-03T00:55:21.048Z,0.41
2023-03-03T00:56:20.991Z,0.41
2023-03-03T00:57:20.988Z,0.41
2023-03-03T00:58:20.978Z,0.41
2023-03-03T00:59:20.975Z,0.35
2023-03-03T01:00:20.964Z,0.44
2023-03-03T01:01:21.008Z,0.42
2023-03-03T01:02:20.955Z,0.31
2023-03-03T01:03:20.918Z,0.39
2023-03-03T01:04:20.907Z,0.36
2023-03-03T01:05:20.920Z,0.38
2023-03-03T01:06:20.896Z,0.28
2023-03-03T01:07:20.894Z,0.28
2023-03-03T01:08:20.862Z,0.33
2023-03-03T01:09:20.857Z,0.31
2023-03-03T01:10:20.831Z,0.36
2023-03-03T01:11:20.837Z,0.28
2023-03-03T01:12:20.804Z,0.33
2023-03-03T01:13:20.825Z,0.39
2023-03-03T01:14:20.851Z,0.26
2023-03-03T01:15:20.797Z,0.31
2023-03-03T01:16:20.861Z,0.28
2023-03-03T01:17:20.784Z,0.26
2023-03-03T01:18:20.773Z,0.26
2023-03-03T01:19:20.740Z,0.31
2023-03-03T01:20:20.753Z,0.28
2023-03-03T01:21:20.732Z,0.31
2023-03-03T01:22:20.695Z,0.24
2023-03-03T01:23:20.742Z,0.20
2023-03-03T01:24:20.683Z,0.20
2023-03-03T01:25:20.722Z,0.20
2023-03-03T01:26:20.662Z,0.14
2023-03-03T01:27:20.648Z,0.28
2023-03-03T01:28:20.744Z,0.15
2023-03-03T01:29:20.620Z,0.21
2023-03-03T01:30:20.635Z,0.23
2023-03-03T01:31:20.626Z,0.15
2023-03-03T01:32:20.657Z,0.15
2023-03-03T01:33:20.600Z,0.17
2023-03-03T01:34:20.572Z,0.15
2023-03-03T01:35:20.666Z,0.08
2023-03-03T01:36:20.541Z,0.07
2023-03-03T01:37:20.534Z,0.04
2023-03-03T01:38:20.529Z,0.13
2023-03-03T01:39:20.530Z,0.20
2023-03-03T01:40:20.521Z,0.18
2023-03-03T01:41:20.507Z,0.13
2023-03-03T01:42:20.566Z,0.18
2023-03-03T01:43:20.478Z,0.28
2023-03-03T01:44:20.499Z,0.23
2023-03-03T01:45:20.471Z,0.04
2023-03-03T01:46:20.492Z,0.02
2023-03-03T01:47:20.428Z,0.13
2023-03-03T01:48:20.412Z,0.13
2023-03-03T01:49:20.410Z,0.11
2023-03-03T01:50:20.420Z,0.07
2023-03-03T01:51:20.389Z,0.08
2023-03-03T01:52:20.395Z,0.10
2023-03-03T01:53:20.384Z,0.10
2023-03-03T01:54:20.397Z,0.10
2023-03-03T01:55:20.392Z,0.10
2023-03-03T01:56:20.365Z,0.11
2023-03-03T01:57:20.319Z,0.08
2023-03-03T01:58:20.310Z,0.04
2023-03-03T01:59:20.297Z,0.04
2023-03-03T02:00:20.320Z,0.08
2023-03-03T02:01:20.361Z,0.04
2023-03-03T02:02:20.279Z,0.04
2023-03-03T02:03:20.284Z,0.08
2023-03-03T02:04:20.251Z,0.07
2023-03-03T02:05:20.238Z,0.07
2023-03-03T02:06:20.239Z,0.13
2023-03-03T02:07:20.247Z,0.07
2023-03-03T02:08:20.231Z,0.07
2023-03-03T02:09:20.211Z,0.02
2023-03-03T02:10:20.200Z,0.04
2023-03-03T02:11:20.208Z,0.04
2023-03-03T02:12:20.154Z,-0.03
2023-03-03T02:13:20.178Z,-0.04
2023-03-03T02:14:20.141Z,-0.07
2023-03-03T02:15:20.146Z,-0.05
2023-03-03T02:16:20.242Z,-0.03
2023-03-03T02:17:20.119Z,-0.03
2023-03-03T02:18:20.100Z,-0.07
2023-03-03T02:19:20.079Z,-0.08
2023-03-03T02:20:20.072Z,0.00
2023-03-03T02:21:20.105Z,0.00
2023-03-03T02:22:20.070Z,-0.07
2023-03-03T02:23:20.036Z,0.00
2023-03-03T02:24:20.047Z,-0.05
2023-03-03T02:25:20.014Z,-0.16
2023-03-03T02:26:20.041Z,-0.21
2023-03-03T02:27:20.046Z,-0.15
2023-03-03T02:28:19.990Z,-0.14
2023-03-03T02:29:19.979Z,-0.08
2023-03-03T02:30:19.971Z,-0.33
2023-03-03T02:31:19.991Z,-0.21
2023-03-03T02:32:19.976Z,-0.18
2023-03-03T02:33:19.936Z,-0.16
2023-03-03T02:34:19.916Z,-0.18
2023-03-03T02:35:19.965Z,-0.14
2023-03-03T02:36:19.929Z,-0.11
2023-03-03T02:37:19.931Z,-0.18
2023-03-03T02:38:19.880Z,-0.18
2023-03-03T02:39:19.877Z,-0.22
2023-03-03T02:40:19.860Z,-0.19
2023-03-03T02:41:19.863Z,-0.19
2023-03-03T02:42:19.831Z,-0.26
2023-03-03T02:43:19.846Z,-0.18
2023-03-03T02:44:19.838Z,-0.19
2023-03-03T02:45:19.805Z,-0.14
2023-03-03T02:46:19.787Z,-0.15
2023-03-03T02:47:19.774Z,-0.08
2023-03-03T02:48:19.799Z,-0.11
2023-03-03T02:49:19.750Z,-0.11
2023-03-03T02:50:19.748Z,-0.16
2023-03-03T02:51:19.757Z,-0.23
2023-03-03T02:52:19.718Z,-0.19
2023-03-03T02:53:19.730Z,-0.10
2023-03-03T02:54:19.695Z,-0.10
2023-03-03T02:55:19.686Z,-0.21
2023-03-03T02:56:19.715Z,-0.19
2023-03-03T02:57:19.661Z,-0.18
2023-03-03T02:58:19.653Z,-0.19
2023-03-03T02:59:19.651Z,-0.25
2023-03-03T03:00:19.659Z,-0.15
2023-03-03T03:01:19.691Z,-0.16
2023-03-03T03:02:19.627Z,-0.18
2023-03-03T03:03:19.596Z,-0.15
2023-03-03T03:04:19.694Z,-0.21
2023-03-03T03:05:19.571Z,-0.16
2023-03-03T03:06:19.557Z,-0.21
2023-03-03T03:07:19.576Z,-0.23
2023-03-03T03:08:19.550Z,-0.16
2023-03-03T03:09:19.533Z,-0.18
2023-03-03T03:10:19.519Z,-0.21
2023-03-03T03:11:19.503Z,-0.21
2023-03-03T03:12:27.671Z,-0.22
2023-03-03T03:13:19.485Z,-0.11
2023-03-03T03:14:19.472Z,-0.16
2023-03-03T03:15:19.478Z,-0.18
2023-03-03T03:16:19.489Z,-0.15
2023-03-03T03:17:19.469Z,-0.28
2023-03-03T03:18:19.428Z,-0.31
2023-03-03T03:19:19.422Z,-0.37
2023-03-03T03:20:19.408Z,-0.46
2023-03-03T03:21:19.425Z,-0.49
2023-03-03T03:22:19.392Z,-0.36
2023-03-03T03:23:19.412Z,-0.42
2023-03-03T03:24:19.371Z,-0.40
2023-03-03T03:25:19.359Z,-0.52
2023-03-03T03:26:19.366Z,-0.40
2023-03-03T03:27:19.374Z,-0.37
2023-03-03T03:28:19.314Z,-0.42
2023-03-03T03:29:19.306Z,-0.31
2023-03-03T03:30:19.333Z,-0.47
2023-03-03T03:31:19.319Z,-0.46
2023-03-03T03:32:19.378Z,-0.55
2023-03-03T03:33:19.277Z,-0.47
2023-03-03T03:34:19.253Z,-0.42
2023-03-03T03:35:19.254Z,-0.37
2023-03-03T03:36:19.258Z,-0.42
2023-03-03T03:37:19.219Z,-0.58
2023-03-03T03:38:19.210Z,-0.55
2023-03-03T03:39:19.207Z,-0.60
2023-03-03T03:40:19.216Z,-0.55
2023-03-03T03:41:19.185Z,-0.51
2023-03-03T03:42:19.185Z,-0.52
2023-03-03T03:43:19.155Z,-0.52
2023-03-03T03:44:19.160Z,-0.51
2023-03-03T03:45:19.133Z,-0.57
2023-03-03T03:46:19.154Z,-0.52
2023-03-03T03:47:19.304Z,-0.61
2023-03-03T03:48:19.097Z,-0.55
2023-03-03T03:49:20.874Z,-0.58
2023-03-03T03:50:19.151Z,-0.58
2023-03-03T03:51:19.271Z,-0.57
2023-03-03T03:52:19.162Z,-0.54
2023-03-03T03:53:19.133Z,-0.58
2023-03-03T03:54:19.118Z,-0.62
2023-03-03T03:55:19.140Z,-0.57
2023-03-03T03:56:19.137Z,-0.54
2023-03-03T03:57:19.023Z,-0.55
2023-03-03T03:58:19.176Z,-0.58
2023-03-03T03:59:18.991Z,-0.55
2023-03-03T04:00:19.048Z,-0.52
2023-03-03T04:01:19.042Z,-0.52
2023-03-03T04:02:19.181Z,-0.51
2023-03-03T04:03:19.157Z,-0.42
2023-03-03T04:04:19.001Z,-0.51
2023-03-03T04:05:19.124Z,-0.44
2023-03-03T04:06:19.034Z,-0.46
2023-03-03T04:07:19.075Z,-0.47
2023-03-03T04:08:19.050Z,-0.40
2023-03-03T04:09:18.954Z,-0.55
2023-03-03T04:10:19.023Z,-0.55
2023-03-03T04:11:18.870Z,-0.55
2023-03-03T04:12:19.041Z,-0.52
2023-03-03T04:13:18.928Z,-0.58
2023-03-03T04:14:18.904Z,-0.52
2023-03-03T04:15:18.961Z,-0.51
2023-03-03T04:16:18.840Z,-0.49
2023-03-03T04:17:18.847Z,-0.62
2023-03-03T04:18:18.936Z,-0.64
2023-03-03T04:19:19.317Z,-0.70
2023-03-03T04:20:18.839Z,-0.78
2023-03-03T04:21:18.869Z,-0.76
2023-03-03T04:22:18.824Z,-0.69
2023-03-03T04:23:18.814Z,-0.75
2023-03-03T04:24:18.903Z,-0.78
2023-03-03T04:25:18.781Z,-0.80
2023-03-03T04:26:19.200Z,-0.76
2023-03-03T04:27:18.819Z,-0.80
2023-03-03T04:28:18.776Z,-0.83
2023-03-03T04:29:18.828Z,-0.80
2023-03-03T04:30:18.745Z,-0.79
2023-03-03T04:31:18.734Z,-0.79
2023-03-03T04:32:18.805Z,-0.78
2023-03-03T04:33:18.700Z,-0.85
2023-03-03T04:34:18.734Z,-0.86
2023-03-03T04:35:18.667Z,-0.83
2023-03-03T04:36:18.720Z,-0.91
2023-03-03T04:37:18.720Z,-0.83
2023-03-03T04:38:18.613Z,-0.86
2023-03-03T04:39:18.686Z,-0.82
2023-03-03T04:40:18.701Z,-0.86
2023-03-03T04:41:18.681Z,-0.78
2023-03-03T04:42:18.669Z,-0.75
2023-03-03T04:43:18.682Z,-0.78
2023-03-03T04:44:18.541Z,-0.73
2023-03-03T04:45:18.689Z,-0.72
2023-03-03T04:46:18.612Z,-0.69
2023-03-03T04:47:18.480Z,-0.76
2023-03-03T04:48:18.467Z,-0.76
2023-03-03T04:49:18.447Z,-0.73
2023-03-03T04:50:18.464Z,-0.75
2023-03-03T04:51:18.443Z,-0.75
2023-03-03T04:52:18.480Z,-0.75
2023-03-03T04:53:18.413Z,-0.82
2023-03-03T04:54:18.840Z,-0.79
2023-03-03T04:55:18.418Z,-0.73
2023-03-03T04:56:18.370Z,-0.75
2023-03-03T04:57:18.372Z,-0.79
2023-03-03T04:58:18.370Z,-0.78
2023-03-03T04:59:18.337Z,-0.80
2023-03-03T05:00:18.335Z,-0.72
2023-03-03T05:01:18.329Z,-0.72
2023-03-03T05:02:18.323Z,-0.70
2023-03-03T05:03:18.316Z,-0.69
2023-03-03T05:04:18.309Z,-0.73
2023-03-03T05:05:18.271Z,-0.73
2023-03-03T05:06:18.254Z,-0.69
2023-03-03T05:07:18.263Z,-0.76
2023-03-03T05:08:18.233Z,-0.76
2023-03-03T05:09:18.312Z,-0.78
2023-03-03T05:10:18.211Z,-0.75
2023-03-03T05:11:18.212Z,-0.80
2023-03-03T05:12:18.201Z,-0.72
2023-03-03T05:13:18.268Z,-0.73
2023-03-03T05:14:18.177Z,-0.69
2023-03-03T05:15:18.158Z,-0.69
2023-03-03T05:16:18.253Z,-0.75
2023-03-03T05:17:18.163Z,-0.75
2023-03-03T05:18:18.381Z,-0.82
2023-03-03T05:19:18.207Z,-0.72
2023-03-03T05:20:18.105Z,-0.80
2023-03-03T05:21:18.109Z,-0.75
2023-03-03T05:22:18.116Z,-0.75
2023-03-03T05:23:18.093Z,-0.76
2023-03-03T05:24:18.341Z,-0.76
2023-03-03T05:25:18.049Z,-0.79
2023-03-03T05:26:18.058Z,-0.76
2023-03-03T05:27:18.028Z,-0.76
2023-03-03T05:28:18.030Z,-0.83
2023-03-03T05:29:18.003Z,-0.76
2023-03-03T05:30:17.987Z,-0.75
2023-03-03T05:31:18.061Z,-0.79
2023-03-03T05:32:18.001Z,-0.73
2023-03-03T05:33:17.956Z,-0.89
2023-03-03T05:34:17.956Z,-0.94
2023-03-03T05:35:17.971Z,-0.94
2023-03-03T05:36:17.948Z,-0.94
2023-03-03T05:37:17.915Z,-0.83
2023-03-03T05:38:17.924Z,-0.86
2023-03-03T05:39:17.928Z,-0.86
2023-03-03T05:40:17.906Z,-0.94
2023-03-03T05:41:17.870Z,-0.82
2023-03-03T05:42:17.858Z,-0.83
2023-03-03T05:43:17.854Z,-0.80
2023-03-03T05:44:20.245Z,-0.86
2023-03-03T05:45:17.833Z,-0.83
2023-03-03T05:46:17.903Z,-0.78
2023-03-03T05:47:17.808Z,-0.78
2023-03-03T05:48:17.791Z,-0.79
2023-03-03T05:49:17.829Z,-0.75
2023-03-03T05:50:17.776Z,-0.82
2023-03-03T05:51:17.769Z,-0.75
2023-03-03T05:52:17.758Z,-0.76
2023-03-03T05:53:17.738Z,-0.72
2023-03-03T05:54:17.764Z,-0.73
2023-03-03T05:55:17.749Z,-0.76
2023-03-03T05:56:17.707Z,-0.76
2023-03-03T05:57:17.701Z,-0.72
2023-03-03T05:58:17.706Z,-0.75
2023-03-03T05:59:17.698Z,-0.76
2023-03-03T06:00:17.700Z,-0.78
2023-03-03T06:01:17.675Z,-0.78
2023-03-03T06:02:17.658Z,-0.76
2023-03-03T06:03:17.688Z,-0.78
2023-03-03T06:04:17.696Z,-0.76
2023-03-03T06:05:17.609Z,-0.83
2023-03-03T06:06:17.710Z,-0.73
2023-03-03T06:07:17.695Z,-0.78
2023-03-03T06:08:17.596Z,-0.73
2023-03-03T06:09:17.593Z,-0.85
2023-03-03T06:10:17.559Z,-0.78
2023-03-03T06:11:17.574Z,-0.76
2023-03-03T06:12:17.542Z,-0.75
2023-03-03T06:13:17.572Z,-0.83
2023-03-03T06:14:17.569Z,-0.86
2023-03-03T06:15:17.541Z,-0.76
2023-03-03T06:16:17.512Z,-0.76
2023-03-03T06:17:17.475Z,-0.72
2023-03-03T06:18:17.493Z,-0.82
2023-03-03T06:19:17.479Z,-0.73
2023-03-03T06:20:17.461Z,-0.75
2023-03-03T06:21:17.437Z,-0.76
2023-03-03T06:22:17.426Z,-0.75
2023-03-03T06:23:17.410Z,-0.79
2023-03-03T06:24:17.495Z,-0.75
2023-03-03T06:25:17.447Z,-0.75
2023-03-03T06:26:17.394Z,-0.76
2023-03-03T06:27:17.422Z,-0.76
2023-03-03T06:28:17.362Z,-0.69
2023-03-03T06:29:17.361Z,-0.76
2023-03-03T06:30:17.344Z,-0.69
2023-03-03T06:31:17.494Z,-0.70
2023-03-03T06:32:17.401Z,-0.57
2023-03-03T06:33:17.373Z,-0.67
2023-03-03T06:34:17.289Z,-0.60
2023-03-03T06:35:17.409Z,-0.58
2023-03-03T06:36:17.312Z,-0.62
2023-03-03T06:37:17.312Z,-0.62
2023-03-03T06:38:17.288Z,-0.61
2023-03-03T06:39:17.362Z,-0.62
2023-03-03T06:40:17.228Z,-0.61
2023-03-03T06:41:17.412Z,-0.70
2023-03-03T06:42:17.213Z,-0.67
2023-03-03T06:43:17.434Z,-0.72
2023-03-03T06:44:17.179Z,-0.72
2023-03-03T06:45:17.194Z,-0.72
2023-03-03T06:46:17.186Z,-0.69
2023-03-03T06:47:17.161Z,-0.75
2023-03-03T06:48:17.144Z,-0.69
2023-03-03T06:49:17.141Z,-0.67
2023-03-03T06:50:17.133Z,-0.67
2023-03-03T06:51:17.108Z,-0.64
2023-03-03T06:52:17.114Z,-0.65
2023-03-03T06:53:17.085Z,-0.55
2023-03-03T06:54:17.084Z,-0.57
2023-03-03T06:55:17.068Z,-0.52
2023-03-03T06:56:17.050Z,-0.60
2023-03-03T06:57:17.060Z,-0.61
2023-03-03T06:58:17.023Z,-0.62
2023-03-03T06:59:17.076Z,-0.62
2023-03-03T07:00:17.025Z,-0.60
2023-03-03T07:01:17.048Z,-0.70
2023-03-03T07:02:17.010Z,-0.73
2023-03-03T07:03:16.989Z,-0.72
2023-03-03T07:04:17.041Z,-0.75
2023-03-03T07:05:16.959Z,-0.60
2023-03-03T07:06:16.977Z,-0.69
2023-03-03T07:07:16.939Z,-0.72
2023-03-03T07:08:16.963Z,-0.76
2023-03-03T07:09:16.935Z,-0.67
2023-03-03T07:10:16.915Z,-0.69
2023-03-03T07:11:16.910Z,-0.57
2023-03-03T07:12:16.890Z,-0.64
2023-03-03T07:13:16.914Z,-0.58
2023-03-03T07:14:16.870Z,-0.64
2023-03-03T07:15:16.927Z,-0.58
2023-03-03T07:16:16.931Z,-0.62
2023-03-03T07:17:16.848Z,-0.60
2023-03-03T07:18:16.849Z,-0.57
2023-03-03T07:19:16.813Z,-0.60
2023-03-03T07:20:16.798Z,-0.52
2023-03-03T07:21:16.849Z,-0.55
2023-03-03T07:22:16.784Z,-0.52
2023-03-03T07:23:16.800Z,-0.58
2023-03-03T07:24:16.759Z,-0.61
2023-03-03T07:25:16.753Z,-0.67
2023-03-03T07:26:16.769Z,-0.60
2023-03-03T07:27:16.737Z,-0.61
2023-03-03T07:28:16.714Z,-0.65
2023-03-03T07:29:16.714Z,-0.52
2023-03-03T07:30:16.704Z,-0.57
2023-03-03T07:31:16.780Z,-0.58
2023-03-03T07:32:16.823Z,-0.52
2023-03-03T07:33:16.697Z,-0.54
2023-03-03T07:34:16.683Z,-0.49
2023-03-03T07:35:16.641Z,-0.44
2023-03-03T07:36:16.629Z,-0.43
2023-03-03T07:37:16.629Z,-0.47
2023-03-03T07:38:16.619Z,-0.52
2023-03-03T07:39:16.629Z,-0.54
2023-03-03T07:40:16.594Z,-0.58
2023-03-03T07:41:16.580Z,-0.51
2023-03-03T07:42:16.583Z,-0.46
2023-03-03T07:43:16.556Z,-0.55
2023-03-03T07:44:16.550Z,-0.51
2023-03-03T07:45:16.586Z,-0.55
2023-03-03T07:46:16.595Z,-0.49
2023-03-03T07:47:16.532Z,-0.55
2023-03-03T07:48:16.562Z,-0.52
2023-03-03T07:49:16.503Z,-0.54
2023-03-03T07:50:16.508Z,-0.54
2023-03-03T07:51:16.592Z,-0.44
2023-03-03T07:52:16.463Z,-0.46
2023-03-03T07:53:16.469Z,-0.52
2023-03-03T07:54:16.440Z,-0.54
2023-03-03T07:55:16.428Z,-0.55
2023-03-03T07:56:16.416Z,-0.54
2023-03-03T07:57:16.434Z,-0.52
2023-03-03T07:58:16.448Z,-0.42
2023-03-03T07:59:16.388Z,-0.39
2023-03-03T08:00:16.442Z,-0.47
2023-03-03T08:01:16.398Z,-0.43
2023-03-03T08:02:16.377Z,-0.40
2023-03-03T08:03:16.364Z,-0.37
2023-03-03T08:04:16.377Z,-0.37
2023-03-03T08:05:16.457Z,-0.34
2023-03-03T08:06:16.331Z,-0.37
2023-03-03T08:07:16.310Z,-0.31
2023-03-03T08:08:16.287Z,-0.19
2023-03-03T08:09:16.283Z,-0.18
2023-03-03T08:10:16.288Z,-0.25
2023-03-03T08:11:16.279Z,-0.19
2023-03-03T08:12:16.238Z,-0.21
2023-03-03T08:13:16.220Z,-0.14
2023-03-03T08:14:16.234Z,-0.19
2023-03-03T08:15:16.205Z,-0.21
2023-03-03T08:16:16.257Z,-0.11
2023-03-03T08:17:16.179Z,-0.08
2023-03-03T08:18:16.160Z,-0.10
2023-03-03T08:19:16.196Z,-0.05
2023-03-03T08:20:16.161Z,-0.01
2023-03-03T08:21:16.152Z,-0.03
2023-03-03T08:22:16.117Z,-0.10
2023-03-03T08:23:16.128Z,-0.11
2023-03-03T08:24:16.113Z,-0.14
2023-03-03T08:25:16.097Z,-0.05
2023-03-03T08:26:16.076Z,0.07
2023-03-03T08:27:16.064Z,0.07
2023-03-03T08:28:16.079Z,0.03
2023-03-03T08:29:16.041Z,0.00
2023-03-03T08:30:16.047Z,-0.01
2023-03-03T08:31:27.761Z,-0.03
2023-03-03T08:32:17.129Z,0.04
2023-03-03T08:33:16.004Z,0.07
2023-03-03T08:34:15.982Z,0.03
2023-03-03T08:35:15.997Z,0.10
2023-03-03T08:36:15.982Z,0.18
2023-03-03T08:37:15.957Z,0.18
2023-03-03T08:38:15.952Z,0.29
2023-03-03T08:39:15.930Z,0.29
2023-03-03T08:40:15.914Z,0.24
2023-03-03T08:41:15.933Z,0.24
2023-03-03T08:42:16.340Z,0.32
2023-03-03T08:43:15.917Z,0.29
2023-03-03T08:44:15.918Z,0.24
2023-03-03T08:45:15.866Z,0.24
2023-03-03T08:46:15.857Z,0.20
2023-03-03T08:47:15.859Z,0.18
2023-03-03T08:48:15.839Z,0.14
2023-03-03T08:49:15.828Z,0.15
2023-03-03T08:50:15.805Z,0.15
2023-03-03T08:51:15.852Z,0.21
2023-03-03T08:52:15.810Z,0.20
2023-03-03T08:53:15.801Z,0.28
2023-03-03T08:54:15.777Z,0.35
2023-03-03T08:55:15.759Z,0.50
2023-03-03T08:56:15.754Z,0.49
2023-03-03T08:57:15.734Z,0.58
2023-03-03T08:58:15.747Z,0.38
2023-03-03T08:59:15.717Z,0.33
2023-03-03T09:00:15.713Z,0.32
2023-03-03T09:01:15.714Z,0.33
2023-03-03T09:02:15.680Z,0.46
2023-03-03T09:03:15.667Z,0.39
2023-03-03T09:04:15.693Z,0.42
2023-03-03T09:05:15.675Z,0.47
2023-03-03T09:06:15.645Z,0.51
2023-03-03T09:07:15.643Z,0.51
2023-03-03T09:08:15.611Z,0.51
2023-03-03T09:09:15.610Z,0.44
2023-03-03T09:10:15.656Z,0.31
2023-03-03T09:11:15.586Z,0.44
2023-03-03T09:12:15.568Z,0.36
2023-03-03T09:13:15.562Z,0.57
2023-03-03T09:14:15.580Z,0.53
2023-03-03T09:15:15.570Z,0.49
2023-03-03T09:16:15.581Z,0.55
2023-03-03T09:17:15.573Z,0.53
2023-03-03T09:18:15.522Z,0.53
2023-03-03T09:19:15.497Z,0.44
2023-03-03T09:20:15.526Z,0.47
2023-03-03T09:21:15.466Z,0.50
2023-03-03T09:22:15.476Z,0.60
2023-03-03T09:23:15.468Z,0.51
2023-03-03T09:24:15.475Z,0.65
2023-03-03T09:25:15.421Z,0.65
2023-03-03T09:26:15.440Z,0.50
2023-03-03T09:27:15.438Z,0.65
2023-03-03T09:28:15.533Z,0.57
2023-03-03T09:29:15.407Z,0.68
2023-03-03T09:30:15.560Z,0.62
2023-03-03T09:31:15.411Z,0.57
2023-03-03T09:32:15.454Z,0.57
2023-03-03T09:33:15.339Z,0.65
2023-03-03T09:34:15.334Z,0.73
2023-03-03T09:35:15.327Z,0.75
2023-03-03T09:36:15.301Z,0.76
2023-03-03T09:37:15.596Z,0.76
2023-03-03T09:38:15.305Z,0.75
2023-03-03T09:39:15.295Z,0.76
2023-03-03T09:40:15.263Z,0.80
2023-03-03T09:41:15.265Z,0.75
2023-03-03T09:42:15.260Z,0.87
2023-03-03T09:43:15.217Z,0.86
2023-03-03T09:44:15.216Z,0.91
2023-03-03T09:45:15.214Z,0.93
2023-03-03T09:46:15.228Z,1.02
2023-03-03T09:47:15.244Z,1.05
2023-03-03T09:48:15.167Z,1.02
2023-03-03T09:49:15.184Z,1.05
2023-03-03T09:50:15.151Z,1.06
2023-03-03T09:51:15.270Z,0.97
2023-03-03T09:52:15.150Z,1.00
2023-03-03T09:53:15.114Z,0.93
2023-03-03T09:54:15.102Z,0.88
2023-03-03T09:55:15.105Z,0.90
2023-03-03T09:56:15.102Z,0.75
2023-03-03T09:57:15.071Z,0.78
2023-03-03T09:58:15.062Z,0.73
2023-03-03T09:59:15.075Z,0.69
2023-03-03T10:00:15.035Z,0.75
2023-03-03T10:01:15.043Z,0.78
2023-03-03T10:02:15.049Z,0.76
2023-03-03T10:03:15.089Z,0.66
2023-03-03T10:04:15.122Z,0.73
2023-03-03T10:05:14.984Z,0.73
2023-03-03T10:06:14.994Z,0.62
2023-03-03T10:07:15.098Z,0.70
2023-03-03T10:08:15.084Z,0.80
2023-03-03T10:09:15.146Z,0.79
2023-03-03T10:10:15.050Z,0.96
2023-03-03T10:11:15.025Z,0.98
2023-03-03T10:12:17.669Z,0.97
2023-03-03T10:13:15.002Z,0.93
2023-03-03T10:14:15.039Z,0.90
2023-03-03T10:15:14.951Z,0.86
2023-03-03T10:16:15.042Z,0.83
2023-03-03T10:17:14.990Z,0.94
2023-03-03T10:18:15.159Z,0.86
2023-03-03T10:19:14.999Z,0.88
2023-03-03T10:20:14.956Z,0.93
2023-03-03T10:21:14.961Z,0.93
2023-03-03T10:22:14.968Z,0.94
2023-03-03T10:23:14.943Z,1.02
2023-03-03T10:24:14.898Z,1.02
2023-03-03T10:25:14.876Z,1.05
2023-03-03T10:26:14.888Z,0.98
2023-03-03T10:27:14.895Z,0.98
2023-03-03T10:28:14.816Z,1.18
2023-03-03T10:29:14.772Z,1.15
2023-03-03T10:30:14.875Z,1.14
2023-03-03T10:31:17.979Z,1.11
2023-03-03T10:32:14.984Z,1.08
2023-03-03T10:33:15.594Z,1.04
2023-03-03T10:34:15.300Z,1.08
2023-03-03T10:35:15.444Z,1.02
2023-03-03T10:36:15.423Z,1.09
2023-03-03T10:37:14.744Z,0.98
2023-03-03T10:38:14.932Z,0.96
2023-03-03T10:39:14.936Z,0.88
2023-03-03T10:40:14.614Z,0.79
2023-03-03T10:41:14.724Z,0.79
2023-03-03T10:42:14.799Z,0.76
2023-03-03T10:43:26.087Z,0.75
2023-03-03T10:44:15.554Z,0.73
2023-03-03T10:45:14.583Z,0.76
2023-03-03T10:46:14.619Z,0.87
2023-03-03T10:47:14.801Z,0.98
2023-03-03T10:48:14.570Z,1.04
2023-03-03T10:49:14.512Z,0.97
2023-03-03T10:50:14.614Z,1.22
2023-03-03T10:51:14.522Z,1.15
2023-03-03T10:52:14.469Z,1.14
2023-03-03T10:53:14.453Z,1.14
2023-03-03T10:54:14.448Z,1.14
2023-03-03T10:55:14.600Z,1.18
2023-03-03T10:56:14.649Z,1.22
2023-03-03T10:57:15.280Z,1.26
2023-03-03T10:58:14.410Z,1.37
2023-03-03T10:59:14.419Z,1.24
2023-03-03T11:00:14.584Z,1.36
2023-03-03T11:01:15.344Z,1.14
2023-03-03T11:02:14.646Z,1.08
2023-03-03T11:03:14.441Z,0.98
2023-03-03T11:04:14.357Z,1.02
2023-03-03T11:05:14.460Z,1.11
2023-03-03T11:06:14.466Z,1.29
2023-03-03T11:07:14.295Z,1.37
2023-03-03T11:08:14.287Z,1.32
2023-03-03T11:09:14.276Z,1.41
2023-03-03T11:10:14.271Z,1.50
2023-03-03T11:11:14.280Z,1.52
2023-03-03T11:12:14.362Z,1.60
2023-03-03T11:13:14.230Z,1.52
2023-03-03T11:14:14.227Z,1.50
2023-03-03T11:15:14.279Z,1.54
2023-03-03T11:16:14.351Z,1.58
2023-03-03T11:17:14.323Z,1.51
2023-03-03T11:18:14.323Z,1.42
2023-03-03T11:19:14.167Z,1.47
2023-03-03T11:20:14.175Z,1.23
2023-03-03T11:21:14.143Z,1.22
2023-03-03T11:22:14.140Z,1.22
2023-03-03T11:23:14.131Z,1.20
2023-03-03T11:24:14.125Z,1.37
2023-03-03T11:25:14.130Z,1.33
2023-03-03T11:26:14.090Z,1.40
2023-03-03T11:27:14.078Z,1.29
2023-03-03T11:28:14.109Z,1.33
2023-03-03T11:29:14.059Z,1.30
2023-03-03T11:30:14.045Z,1.47
2023-03-03T11:31:14.111Z,1.55
2023-03-03T11:32:14.097Z,1.55
2023-03-03T11:33:14.024Z,1.59
2023-03-03T11:34:14.026Z,1.68
2023-03-03T11:35:14.002Z,1.80
2023-03-03T11:36:13.982Z,1.76
2023-03-03T11:37:13.976Z,1.73
2023-03-03T11:38:13.956Z,1.77
2023-03-03T11:39:13.965Z,1.84
2023-03-03T11:40:13.943Z,1.90
2023-03-03T11:41:13.944Z,2.02
2023-03-03T11:42:13.917Z,2.09
2023-03-03T11:43:20.662Z,2.16
2023-03-03T11:44:14.924Z,2.18
2023-03-03T11:45:13.882Z,2.16
2023-03-03T11:46:13.936Z,2.02
2023-03-03T11:47:13.876Z,2.07
2023-03-03T11:48:13.855Z,1.99
2023-03-03T11:49:13.830Z,1.88
2023-03-03T11:50:13.851Z,1.95
2023-03-03T11:51:13.848Z,2.03
2023-03-03T11:52:13.809Z,2.02
2023-03-03T11:53:13.793Z,1.98
2023-03-03T11:54:13.782Z,1.98
2023-03-03T11:55:13.771Z,1.91
2023-03-03T11:56:13.759Z,2.00
2023-03-03T11:57:13.776Z,2.00
2023-03-03T11:58:13.744Z,2.06
2023-03-03T11:59:13.730Z,2.14
2023-03-03T12:00:13.723Z,2.23
2023-03-03T12:01:13.747Z,2.28
2023-03-03T12:02:13.732Z,2.41
2023-03-03T12:03:13.701Z,2.53
2023-03-03T12:04:13.681Z,2.67
2023-03-03T12:05:13.686Z,2.61
2023-03-03T12:06:13.702Z,2.56
2023-03-03T12:07:19.102Z,2.56
2023-03-03T12:08:14.692Z,2.60
2023-03-03T12:09:13.661Z,2.56
2023-03-03T12:10:13.664Z,2.45
2023-03-03T12:11:13.667Z,2.41
2023-03-03T12:12:13.654Z,2.45
2023-03-03T12:13:13.592Z,2.61
2023-03-03T12:14:13.584Z,2.52
2023-03-03T12:15:13.562Z,2.56
2023-03-03T12:16:13.631Z,2.43
2023-03-03T12:17:13.647Z,2.61
2023-03-03T12:18:13.542Z,2.49
2023-03-03T12:19:13.534Z,2.63
2023-03-03T12:20:13.491Z,2.69
2023-03-03T12:21:13.489Z,2.82
2023-03-03T12:22:13.516Z,2.82
2023-03-03T12:23:13.511Z,2.81
2023-03-03T12:24:13.489Z,2.81
2023-03-03T12:25:13.459Z,2.72
2023-03-03T12:26:13.465Z,2.63
2023-03-03T12:27:13.438Z,2.52
2023-03-03T12:28:13.423Z,2.48
2023-03-03T12:29:13.409Z,2.53
2023-03-03T12:30:13.402Z,2.69
2023-03-03T12:31:13.512Z,2.78
2023-03-03T12:32:13.422Z,2.67
2023-03-03T12:33:13.372Z,2.75
2023-03-03T12:34:13.381Z,2.74
2023-03-03T12:35:13.376Z,2.84
2023-03-03T12:36:13.360Z,2.66
2023-03-03T12:37:13.330Z,2.57
2023-03-03T12:38:13.340Z,2.36
2023-03-03T12:39:13.692Z,2.42
2023-03-03T12:40:13.315Z,2.10
2023-03-03T12:41:13.303Z,1.99
2023-03-03T12:42:13.449Z,2.07
2023-03-03T12:43:13.265Z,2.05
2023-03-03T12:44:13.268Z,2.10
2023-03-03T12:45:13.276Z,1.99
2023-03-03T12:46:13.259Z,2.00
2023-03-03T12:47:13.226Z,2.02
2023-03-03T12:48:13.213Z,1.91
2023-03-03T12:49:13.206Z,1.91
2023-03-03T12:50:13.189Z,2.12
2023-03-03T12:51:13.237Z,2.09
2023-03-03T12:52:13.168Z,2.09
2023-03-03T12:53:13.148Z,2.14
2023-03-03T12:54:13.168Z,2.09
2023-03-03T12:55:13.152Z,2.09
2023-03-03T12:56:13.137Z,2.12
2023-03-03T12:57:13.117Z,2.17
2023-03-03T12:58:13.148Z,2.12
2023-03-03T12:59:13.111Z,2.06
2023-03-03T13:00:13.080Z,2.21
2023-03-03T13:01:13.108Z,2.39
2023-03-03T13:02:13.068Z,2.38
2023-03-03T13:03:13.084Z,2.49
2023-03-03T13:04:13.157Z,2.54
2023-03-03T13:05:13.018Z,2.69
2023-03-03T13:06:13.018Z,2.78